createdAt,value
2018-11-27T00:02:49.698Z,0.05
2018-11-27T00:12:49.776Z,0.29
2018-11-27T00:22:49.751Z,0.35
2018-11-27T00:32:49.752Z,0.12
2018-11-27T00:42:50.201Z,0.13
2018-11-27T00:52:49.777Z,0.03
2018-11-27T01:02:49.755Z,0.03
2018-11-27T01:12:49.674Z,0.07
2018-11-27T01:22:49.637Z,0.16
2018-11-27T01:32:49.966Z,0.11
2018-11-27T01:42:49.712Z,0.12
2018-11-27T01:52:50.026Z,0.07
2018-11-27T02:02:50.022Z,0.07
2018-11-27T02:12:49.698Z,0.03
2018-11-27T02:22:49.801Z,0.00
2018-11-27T02:32:49.845Z,0.00
2018-11-27T02:42:49.703Z,0.03
2018-11-27T02:52:49.794Z,0.03
2018-11-27T03:02:50.377Z,0.01
2018-11-27T03:12:49.714Z,0.02
2018-11-27T03:22:49.726Z,0.00
2018-11-27T03:32:49.741Z,0.01
2018-11-27T03:42:49.733Z,0.00
2018-11-27T03:52:49.662Z,0.01
2018-11-27T04:02:50.741Z,0.05
2018-11-27T04:12:49.834Z,0.03
2018-11-27T04:22:49.760Z,0.03
2018-11-27T04:32:50.745Z,0.01
2018-11-27T04:42:49.673Z,0.00
2018-11-27T04:52:49.746Z,0.00
2018-11-27T05:02:49.689Z,0.03
2018-11-27T05:12:49.748Z,0.03
2018-11-27T05:22:49.690Z,0.08
2018-11-27T05:32:49.781Z,0.04
2018-11-27T05:42:49.649Z,0.08
2018-11-27T05:52:49.721Z,0.08
2018-11-27T06:02:49.711Z,0.21
2018-11-27T06:12:49.678Z,0.05
2018-11-27T06:22:49.730Z,0.17
2018-11-27T06:32:49.899Z,0.13
2018-11-27T06:42:49.769Z,0.37
2018-11-27T06:52:49.736Z,0.06
2018-11-27T07:02:50.567Z,0.21
2018-11-27T07:12:49.821Z,0.08
2018-11-27T07:22:49.788Z,0.01
2018-11-27T07:32:50.949Z,0.04
2018-11-27T07:42:49.912Z,0.13
2018-11-27T07:52:50.898Z,0.09
2018-11-27T08:02:49.667Z,0.07
2018-11-27T08:12:50.628Z,0.08
2018-11-27T08:22:49.668Z,0.04
2018-11-27T08:32:49.961Z,0.05
2018-11-27T08:42:49.687Z,0.03
2018-11-27T08:52:49.569Z,0.01
2018-11-27T09:02:49.699Z,0.15
2018-11-27T09:12:49.633Z,0.11
2018-11-27T09:22:49.853Z,0.47
2018-11-27T09:32:49.624Z,0.49
2018-11-27T09:42:49.780Z,0.51
2018-11-27T09:52:49.792Z,0.51
2018-11-27T10:02:50.082Z,0.43
2018-11-27T10:12:49.613Z,0.50
2018-11-27T10:22:49.775Z,0.41
2018-11-27T10:32:49.687Z,0.42
2018-11-27T10:42:50.010Z,0.33
2018-11-27T10:52:49.598Z,0.40
2018-11-27T11:02:52.798Z,0.64
2018-11-27T11:12:49.583Z,0.44
2018-11-27T11:22:49.546Z,0.56
2018-11-27T11:32:49.618Z,0.88
2018-11-27T11:42:49.538Z,0.69
2018-11-27T11:52:49.643Z,0.16
2018-11-27T12:02:49.749Z,0.37
2018-11-27T12:12:49.596Z,0.70
2018-11-27T12:22:49.645Z,0.71
2018-11-27T12:32:49.588Z,0.77
2018-11-27T12:42:49.616Z,1.22
2018-11-27T12:52:49.965Z,0.52
2018-11-27T13:02:49.581Z,0.05
2018-11-27T13:12:49.727Z,0.22
2018-11-27T13:22:49.939Z,0.09
2018-11-27T13:32:49.768Z,0.01
2018-11-27T13:42:49.809Z,0.01
2018-11-27T13:52:49.697Z,0.14
2018-11-27T14:02:49.483Z,0.09
2018-11-27T14:12:49.570Z,0.04
2018-11-27T14:22:49.614Z,0.11
2018-11-27T14:32:49.563Z,0.01
2018-11-27T14:42:49.549Z,0.00
2018-11-27T14:52:49.596Z,0.06
2018-11-27T15:02:49.588Z,0.40
2018-11-27T15:12:49.583Z,0.43
2018-11-27T15:22:49.632Z,0.79
2018-11-27T15:32:49.594Z,0.17
2018-11-27T15:42:49.620Z,0.10
2018-11-27T15:52:49.479Z,0.40
2018-11-27T16:02:49.694Z,0.54
2018-11-27T16:12:49.634Z,0.65
2018-11-27T16:22:49.592Z,0.78
2018-11-27T16:32:49.614Z,1.18
2018-11-27T16:42:49.635Z,1.02
2018-11-27T16:52:49.517Z,0.62
2018-11-27T17:02:50.304Z,0.23
2018-11-27T17:12:49.619Z,0.11
2018-11-27T17:22:49.585Z,0.35
2018-11-27T17:32:49.569Z,0.61
2018-11-27T17:42:49.594Z,0.22
2018-11-27T17:52:49.637Z,0.44
2018-11-27T18:02:49.468Z,0.40
2018-11-27T18:12:49.608Z,0.78
2018-11-27T18:22:49.512Z,1.44
2018-11-27T18:32:49.555Z,1.36
2018-11-27T18:42:49.554Z,1.37
2018-11-27T18:52:49.518Z,1.22
2018-11-27T19:02:49.790Z,1.18
2018-11-27T19:12:49.601Z,1.29
2018-11-27T19:22:49.832Z,0.98
2018-11-27T19:32:49.530Z,1.08
2018-11-27T19:42:49.675Z,1.04
2018-11-27T19:52:49.578Z,1.26
2018-11-27T20:02:49.540Z,0.99
2018-11-27T20:12:49.620Z,1.03
2018-11-27T20:22:49.609Z,1.22
2018-11-27T20:32:49.571Z,1.50
2018-11-27T20:42:49.535Z,1.93
2018-11-27T20:52:49.571Z,1.49
2018-11-27T21:02:50.315Z,1.01
2018-11-27T21:12:49.489Z,0.98
2018-11-27T21:22:49.537Z,0.43
2018-11-27T21:32:49.549Z,1.04
2018-11-27T21:42:49.403Z,1.17
2018-11-27T21:52:49.533Z,1.13
2018-11-27T22:02:49.496Z,1.18
2018-11-27T22:12:49.539Z,1.12
2018-11-27T22:22:49.526Z,1.21
2018-11-27T22:32:49.490Z,1.39
2018-11-27T22:42:49.819Z,1.29
2018-11-27T22:52:49.509Z,1.27
2018-11-27T23:02:49.551Z,1.48
2018-11-27T23:12:49.427Z,1.80
2018-11-27T23:22:49.561Z,0.45
2018-11-27T23:32:49.532Z,0.38
2018-11-27T23:42:49.558Z,0.82
2018-11-27T23:52:49.469Z,1.94
